Timeline UpdatesTrip UpdatesNews PostsPvt PostsTravel TipsAdmin PostsConv PostsFollowed PostsChat RequestsBlog PostsPNR Posts

Disclaimer
Search
 
 
Fri Aug 1, 2014 13:18:43 ISTHomeTrainsΣChainsAtlasPNRForumGalleryNewsFAQTripsMembersLoginFeedback
No Recent News for this Train
Other Trains in the News **new
Latest...
Temporary Augmentation of 1 3A Coach on 20/1/14
Fri Jan 17, 2014 (08:52PM)
⇐ Return Journey: Train# 22474

04727⇒22473/Bikaner - Mumbai Bandra (T.) SF Express

Jul 01 2013 (8:21PM)
Change Departure Station:
Change Arrival Station:
Post a Train Travel TipPost a Train Travel Tip **new
Post a Comment/Question/Picture/VideoPost a Comment/Question/Picture/Video
Inaugural Run
Mon Jul 23, 2012
Pantry/Catering
✕ NO Pantry Car
✕ NO Catering
RSA - Rake Sharing
RSA with 12495/12496 Kolkata Bikaner Pratap Express....Entry# 560379
Rake/Coach Composition
LOCO - SLR - GEN - GEN - GEN - S1 - S2 - S3 - S4 - S5 - S6 - S7 - S8 - A1 - B1 - B2 - B3 - GEN - GEN - GEN - SLR , Total 20 Coaches.
Loco
WDM - 3A BGKT ( BKN - ADI ) WAP -...
Read more...
4 BRC ( ADI - BDTS )
News    PNR    Forum    Time-Table    Availability    Fare Chart    Map    Arr/Dep History    Trips    Gallery    ΣChains    X/O    Timeline    
Travel Time: 8h 41m    -2 halts    Distance: 501 km    Avg Speed: 57 km/hr
Type: SuperFast
Zone: NWR/North Western
Departs @ 14:55 (Avg on time)
Platform# ???
 M     
Bikaner Junction/BKN 
Arrives @ 23:36
Platform# ???
 M     
Sirohi Road/SOH 

-2 halts. 55 intermediate Stations between Bikaner Junction and Sirohi Road

Hide intermediate Stations  Show Old Time-Table

#CodeStation NameX/OArrivesAvgDepartsAvgHaltPFDay#KmSpeedElevZoneAddress
1BKNBikaner Junction (6)  -14:55+0--10.064226mNWRBikaner City, Rajasthan
1.1UMSUdramsar  15:08-15:08-  113.8 64241mNWRBikaner, Rajasthan
1.2PAEPalana  15:16-15:16-  122.6 64263mNWRBikaner, Rajasthan
1.3DSODeshnoke (1)X  15:25-15:25-  132.0 64274mNWRDeshnok, Rajasthan
1.4SPOSurpuraX  15:39-15:39-  146.8 64286mNWRBikaner, Rajasthan
2NOKGarhnokha  15:55+1315:57+162m--164.17497mNWRNokha, Rajasthan
2.1CLOChilo  16:08-16:08-  177.8 74304mNWRNational Highway 89, Rajasthan
2.2SBLJShri Balaji  16:11-16:11-  181.3 74296mNWRNational Highway 89, Rajasthan
2.3ALAIAlai  16:20-16:20-  192.9 74289mNWRAlai, Rajasthan
2.4BWSBadwasi  16:27-16:27-  1101.1 74276mNWRMDR 69, Rajasthan
3NGONagaur  16:39+2316:41+252m--1115.760299mNWRNagaur, Rajasthan
3.1MDWMarwar MundwaX  16:59-16:59-  1133.4 60334mNWRMundwa, Rajasthan
3.2KJWKhajwana  17:14-17:14-  1149.1 60329mNWRKhajwana, Rajasthan
3.3DSLDeswal  17:23-17:23-  1158.1 60325mNWRNagaur, Rajasthan
3.4MCPEMarwar Chapri  17:31-17:31-  1165.9 60317mNWRKheduli, Rajasthan
4MTDMerta Road Junction (4)  17:38+2717:43+275m--1172.771322mNWRPhalodi, Rajasthan
4.1JOMJogi Magra (1)X  17:52-17:52-  1183.1 71335mNWRNagaur, Rajasthan
4.2GOTNGotan (3)  18:00-18:00-  1192.8 71323mNWRGotan, Rajasthan
4.3KXGKharia Khangarh  18:06-18:06-  1200.0 71310mNWRKharia Khangar, Rajasthan
4.4UMEDUmed  18:15-18:15-  1210.2 71308mNWRJodhpur, Rajasthan
4.5SWFSathin Road  18:23-18:23-  1220.5 71284mNWRUMED, Rajasthan
4.6PPRPipar Road Junction  18:31-18:31-  1229.1 71272mNWRState Highway 58, Rajasthan
4.7KSWKheri SalwaX  18:36-18:36-  1235.5 71269mNWRJajiwal, Rajasthan
4.8AASAsranada  18:44-18:44-  1244.7 71251mNWRState Highway 58, Rajasthan
4.9JWLJajiwalX  18:51-18:51-  1253.5 71228mNWRJodhpur, Rajasthan
4.10BNOBanar  18:58-18:58-  1261.7 71213mNWRBanar, Rajasthan
4.11JUCTJodhpur Cantt. (1)  19:03-19:03-  1267.9 71220mNWRJodhpur, Rajasthan
4.12RKBRaikabagh Palace Junction (2)  19:08-19:08-  1273.7 71237mNWRJodhpur, Rajasthan
5JUJodhpur Junction (5)  19:10+2219:20+2010m--1276.055241mNWRJodhpur, Rajasthan
5.1BGKTBhagat Ki Kothi (3)  19:24-19:24-  1279.5 55229mNWRJodhpur, Rajasthan
5.2BANEBasniX  19:27-19:27-  1282.6 55219mNWRJodhpur, Rajasthan
5.3SZSalawas  19:38-19:38-  1292.1 55193mNWRLuni, Rajasthan
5.4HWTHanwant  19:48-19:48-  1301.4 55185mNWRBasni, Rajasthan
6LUNILuni Junction (3)  19:55+1619:58+153m--1307.888180mNWRLuni, Rajasthan
6.1RTRohat  20:07-20:07-  1320.7 88183mNWRSH 64, Rajasthan
6.2PRDHPirdulesha Halt  20:12-20:12-  1328.3 88192mNWRBandai, Rajasthan
6.3KAIKairla  20:16-20:16-  1333.9 88213mNWRPali, Rajasthan
7PMYPali Marwar (2)  20:26+1520:28+172m--1349.038221mNWRPali, Rajasthan
7.1BOMBomadra  20:46-20:46-  1360.2 38234mNWRPali Marwar, Rajasthan
7.2RKZRajkiawas  21:00-21:00-  1369.5 38245mNWRMarwar, Rajasthan
8MJMarwar Junction (4)  21:17+2521:19+282m--1380.053267mNWRMarwar Junction, Rajasthan
8.1AUWAAuwa (2)  21:29-21:29-  1388.6 53265mNWRSomesar, Rajasthan
8.2BGGBanta Raghunathgarh  21:37-21:37-  1395.9 53266mNWRSomesar, Rajasthan
8.3BWABhinwaliya  21:44-21:44-  1401.9 53268mNWRPindwara, Rajasthan
8.4SOSSomesar  21:50-21:50-  1407.9 53269mNWRSomesar, Rajasthan
8.5JALJawali  22:00-22:00-  1416.4 53270mNWRRania, Rajasthan
8.6BGPRBhagwanpuraX  22:08-22:08-  1424.0 53276mNWRSomesar, Rajasthan
8.7RANIRaniX  22:18-22:18-  1432.0 53280mNWRRania, Rajasthan
8.8KZQKhimel  22:25-22:25-  1438.4 53277mNWRJawai Bandh, Rajasthan
8.9FAFalna (2)X  22:34-22:34-  1446.4 53282mNWRFalna, Rajasthan
8.10BRLYBiroliya  22:43-22:43-  1454.5 53294mNWRBiroliya Rd, Rajasthan
8.11JWBJawai Bandh  22:52-22:52-  1462.6 53292mNWRPali, Rajasthan
8.12MOIMori BeraX  23:03-23:03-  1472.0 53323mNWRNana, Rajasthan
8.13KTRKothar  23:10-23:10-  1478.3 53346mNWRPali, Rajasthan
8.14NANANana  23:17-23:17-  1484.5 53355mNWRNana, Rajasthan
8.15KVJKeshavganj  23:27-23:27-  1493.5 53393mNWRJawai Bandh, Rajasthan
8.16SOHSirohi Road (2)  23:36-23:36-  1501.5 53369mNWRPindwara, Rajasthan
8.17BNSBanas  23:47-23:47-  1511.5 53347mNWRSirohi Road, Rajasthan
8.18SRPJSwarupGanj  23:56-23:56-  1519.9 53334mNWRSirohi Road, Rajasthan
8.19BMNBhimana  00:06-00:06-  2528.5 53313mNWRAbu Road, Rajasthan
8.20KWIKivarli  00:15-00:15-  2536.3 53281mNWRShri Amirgadh, Rajasthan
8.21MXOMorthala  00:21-00:21-  2542.2 53267mNWRNH 14, Rajasthan
9ABRAbu Road (3)X  00:25+600:30+115m--2545.339264mNWRSirohi Dist, Rajasthan
9.1MAAMavalX  00:44-00:44-  2554.7 39245mNWRNational Highway 14, Rajasthan
9.2SIMShri AmirgadhX  00:57-00:57-  2563.0 39229mNWRAmirgadh, Gujarat
9.3SZASarotra Road  01:06-01:06-  2568.4 39216mNWRSarotra, Gujarat
9.4IQGIqbal Gadh  01:17-01:17-  2575.9 39209mNWRBanaskantha, Gujarat
9.5JTYJethi  01:27-01:27-  2582.1 39212mNWRBANASKANTHA, Gujarat
9.6CTTChitrasani  01:33-01:33-  2586.5 39225mNWRChitrasani, Gujarat
9.7KRJDKarjoda  01:42-01:42-  2591.9 39234mNWRChhapi, Gujarat
10PNUPalanpur Junction (5)X  01:51-501:53+52m--2597.968216mWRPalanpur, Gujarat
10.1UMUmardashi  02:00-02:00-  2606.3 68187mWRChitrasani, Gujarat
10.2CHPChhapi  02:07-02:07-  2614.1 68169mWRBanaskantha, Gujarat
10.3DRWDharewada  02:14-02:14-  2621.8 68145mWRUnjha, Gujarat
11SIDSiddhpur  02:19+502:21+62m--2627.448136mWRState Highway 41, Gujarat
11.1KMLIKamliX  02:29-02:29-  2633.7 48126mWRChhapi, Gujarat
12UJAUnjhaX  02:38+1202:40+172m--2641.155116mWRUnjha, Gujarat
12.1UARUnawa Aithor  02:45-02:45-  2645.7 55108mWRGujarat State Highway 41, Gujarat
12.2BHUBhandu Motidau  02:52-02:52-  2651.8 5597mWRMahesana, Gujarat
12.3MSHMMahesana  03:04-03:04-  2662.9 5594mWRMehsana, Gujarat
13MSHMahesana Junction (6)  03:04+1303:06+142m--2662.94995mWRMehsana, Gujarat
13.1SXSShobhasan  03:13-03:13-  2668.4 4986mWRState Highway 41, Gujarat
13.2JDNJagudan  03:18-03:18-  2672.7 4990mWRKochva Road, Gujarat
13.3JDNMJagudan  03:18-03:18-  2672.8 4990mWRKochva Road, Gujarat
13.4UMNAmbliyasan  03:28-03:28-  2680.6 4990mWRMehsana, Gujarat
13.5KYSBKaiyal Sedhavi Bg  03:32-03:32-  2683.9 4985mWRLanghanaj, Gujarat
13.6KYSDKaiyal Sedhavi  03:32-03:32-  2683.9 4985mWRState Highway 217, Gujarat
13.7DNWDangarwa  03:37-03:37-  2688.3 4983mWRJagudan, Gujarat
13.8GUSGhumasan  03:41-03:41-  2692.0 4982mWRState Highway 41, Gujarat
13.9GUSBGhumasan Bg  03:42-03:42-  2692.1 4981mWRChandarda, Gujarat
13.10JULJhulasan (3)  03:45-03:45-  2694.9 4977mWRMehsana, Gujarat
13.11PNPansar  03:48-03:48-  2697.2 4974mWRPalanpur, Gujarat
13.12ENIsand  03:51-03:51-  2699.4 4977mWRKhodiyar, Gujarat
13.13CTRLChhatral  03:53-03:53-  2701.2 4972mWRState Highway 133, Gujarat
13.14KLLKalol (3)  03:57-03:57-  2704.8 4971mWRKalol, Gujarat
13.15SHRDSaij Sertha Road (2)  04:02-04:02-  2709.0 4971mWRJhulasan, Gujarat
13.16KHDKhodiyar  04:10-04:10-  2715.5 4965mWRGandhinagar, Gujarat
13.17CLDBChandlodiya B  04:19-04:19-  2722.8 4955mWRAhmedabad, Gujarat
13.18SBISSabarmati South  04:24-04:24-  2727.2 4956mWRSabarmati South, Gujarat
13.19SBISabarmati Junction (3)  04:28-04:28-  2730.5 4955mWRAhmadabad, Gujarat
13.20SBTSabarmati Junction (3)  04:28-04:28-  2730.5 4952mWRAhmedabad, Gujarat
13.21SBICSabarmati Bridge  04:29-04:29-  2731.3 4954mWRSabarmati Bridge, Gujarat
13.22SBTASabarmati A Cabin  04:31-04:31-  2733.0 4956mWRSabarmati A Cabin, Gujarat
14ADIAhmedabad Junction (12)X  04:35+204:55+1020m--2735.95051mWRAhmedabad, Gujarat
14.1KKFKankariaXO  04:57-04:57-  2737.8 5048mWRAhmedabad, Gujarat
14.2MANManinagar (2)X  04:59-04:59-  2739.1 5050mWRAhmadabad, Gujarat
14.3VTAVatva (4)X  05:05-05:05-  2743.9 5049mWRDist. Ahmedabad 382445, Gujarat
14.4GERGeratpur (2)  05:11-05:11-  2749.2 5044mWRAhmadabad, Gujarat
14.5BJDBarejadi Nandej (3)  05:15-05:15-  2752.6 5042mWRBareja-Barejadi Rd, Gujarat
14.6KANJKanij (3)  05:20-05:20-  2756.9 5039mWRBareja-Barejadi Rd, Gujarat
14.7NEPNenpur (2)X  05:24-05:24-  2759.8 5035mWRState Highway 3, Gujarat
14.8MHDMahemdavad Kheda Road (4)  05:29-05:29-  2763.9 5037mWRMahemdavad, Gujarat
14.9GTEGothaj (2)X  05:39-05:39-  2772.2 5032mWRState Highway 3, Gujarat
15NDNadiad Junction (4)X  05:50+2305:52+222m--2781.56237mWRNadiad, Gujarat
15.1UTDUtarsanda (4)X  05:57-05:57-  2787.0 6240mWRUttarsanda, Gujarat
15.2KBRVKanjari Boriyavi Junction (4)  06:03-06:03-  2792.5 6239mWRKanjari, Gujarat
16ANNDAnand Junction (6)X  06:10+1706:12+172m--2800.05044mWRAnand, Gujarat
16.1VXDVadod (3)  06:20-06:20-  2806.9 5044mWRAnand District, Gujarat
16.2ADDAdas Road (4)X  06:25-06:25-  2810.9 5042mWRNational Highway 8, Gujarat
16.3VDAVasad Junction (3)  06:31-06:31-  2815.6 5040mWRVasad, Gujarat
16.4NDRNandesari (2)  06:37-06:37-  2820.6 5042mWRNandesari, Gujarat
16.5RNORanoli (2)  06:42-06:42-  2824.7 5039mWRVadodara District, Gujarat
16.6KRCAKarachiya Yard  06:44-06:44-  2826.5 5039mWRVadodara, Gujarat
16.7BJWBajva (3)X  06:46-06:46-  2828.5 5038mWRVadodara, Gujarat
16.8BRGYVadodara D Cabin  06:54-06:54-  2835.1 5036mWRVadodara, Gujarat
17BRCVadodara Junction (7)  06:55+1507:00+155m--2835.88836mWRVadodara 390005, Gujarat
17.1VSVishvamitri (4)  07:02-07:02-  2838.7 8830mWRVadodara, Gujarat
17.2MPRMakarpura (4)  07:06-07:06-  2844.5 8830mWRVadodara, Gujarat
17.3VRMVarnama (2)X  07:10-07:10-  2850.1 8828mWRVadodara, Gujarat
17.4ITAItola (4)  07:12-07:12-  2854.0 8827mWRNational Highway 8 Vadodara, Gujarat
17.5KSPRKashipura Sarar (2)  07:15-07:15-  2857.8 8826mWRGIDC Industrial Area, Gujarat
17.6MYGMiyagam Karjan (2)  07:20-07:20-  2865.6 8829mWRKarjan, Gujarat
17.7MYGLMiyagam Karjan Junction NGX  07:20-07:20-  2865.6 880mWRKarjan, Gujarat
17.8LKDLakodara (4)  07:26-07:26-  2873.6 8826mWRNH 8, Gujarat
17.9PLJPalej (4)  07:31-07:31-  2880.8 8829mWRPalej, Gujarat
17.10VREVarediya (4)  07:35-07:35-  2887.5 8821mWRNH 8, Gujarat
17.11NIUNabipur (3)  07:40-07:40-  2894.2 8824mWRNabipur, Gujarat
17.12CVJChavaj (2)  07:45-07:45-  2901.3 8820mWRBharuch, Gujarat
18BHBharuch Junction (5)X  07:48+2107:50+202m42906.35919mWRBharuch, Gujarat
18.1AKVAnkleshwar Junction (4)X  07:59-07:59-  2915.6 5919mWRAnkleshwar, Gujarat
18.2SNJLSanjali (2)  08:06-08:06-  2921.7 5923mWRSanjali, Gujarat
18.3PAOPanoli (3)  08:10-08:10-  2925.9 5929mWRPanoli, Gujarat
18.4HATHathuran (2)  08:14-08:14-  2929.8 5932mWRKosamba, Gujarat
18.5KSBKosamba Junction (3)  08:18-08:18-  2934.1 5930mWRKosamba, Gujarat
18.6KIMKim (2)  08:26-08:26-  2941.9 5918mWRNH 8, Gujarat
18.7KDSDKudsad (2)X  08:29-08:29-  2944.7 5918mWRNH 8, Gujarat
18.8SYNSayan (3)  08:36-08:36-  2951.9 5921mWRSayan Satellite town, Gujarat
18.9GTXGothangam (2)X  08:39-08:39-  2954.8 5919mWRAmroli Sayan Rd, Gujarat
18.10KSEKosad (2)O  08:43-08:43-  2958.5 5917mWRSurat, Gujarat
18.11URNUtran (3)  08:46-08:46-  2961.7 5915mWRSurat, Gujarat
19STSurat (4)X  08:50+608:55+65m22965.58519mWRSurat 395001, Gujarat
19.1UDNUdhna Junction (3)X  08:58-08:58-  2969.5 8516mWRUdhna 394210, Gujarat
19.2BHETBhestan (2)  09:01-09:01-  2974.3 8513mWRSurat, Gujarat
19.3SCHSachin (3)X  09:05-09:05-  2980.0 8511mWRKansad Road Sachin, Gujarat
19.4MRLMaroli (3)  09:10-09:10-  2986.7 8515mWRMaroli, Gujarat
20NVSNavsari (3)X  09:16+2009:18+212m--2995.27314mWRNavsari, Gujarat
20.1GNSTGandhi Smriti (2)  09:20-09:20-  2998.2 7316mWRGandhi Smriti Navsari, Gujarat
20.2HXRHansapore (2)  09:22-09:22-  2999.8 7315mWRHansapore, Gujarat
20.3VDHVedchha (3)  09:25-09:25-  21003.6 7313mWRNavsari, Gujarat
20.4ACLAncheli (2)  09:28-09:28-  21007.0 7320mWRNavsari, Gujarat
20.5AMLAmalsad (3)  09:31-09:31-  21010.8 7312mWRAmalsad, Gujarat
20.6BIMBilimora Junction (4)X  09:35-09:35-  21016.3 7311mWRBilimora, Gujarat
20.7JRSJoravasan (2)  09:39-09:39-  21020.3 7315mWRJoravasan, Gujarat
20.8DGIDungri (3)  09:43-09:43-  21025.3 7320mWRNH 8, Gujarat
21BLValsad (3)X  09:50+1:4409:52+1:452m--21034.27915mWRValsad, Gujarat
21.1ATULAtul (3)  09:57-09:57-  21040.9 7922mWRValsad, Gujarat
21.2PADPardi (3)  10:00-10:00-  21044.9 7919mWRValsad, Gujarat
21.3UVDUdvada (3)  10:05-10:05-  21050.9 7918mWRUdvada, Gujarat
21.4BAGDBagwada (2)X  10:07-10:07-  21053.8 7922mWRNH8, Gujarat
21.5VAPIVapi (3)  10:12-10:12-  21060.5 7927mWRVapi, Gujarat
21.6KEBKarambeli (2)O  10:17-10:17-  21066.9 7929mWRNational Highway 8, Gujarat
21.7BLDBhilad (3)X  10:20-10:20-  21071.8 7933mWRBhilad, Gujarat
21.8SJNSanjan (3)X  10:29-10:29-  21083.3 7922mWRSanjan, Gujarat
21.9UBRUmbargam Road (3)  10:33-10:33-  21088.7 7930mWRUmbergaon, Gujarat
21.10BRRDBordi Road (2)  10:37-10:37-  21093.0 7917mWRBordi, Maharashtra
21.11GVDGholvad (4)X  10:40-10:40-  21097.9 7914mWRGholvad, Maharashtra
21.12DRDDahanu Road (5)  10:49-10:49-  21109.0 7912mWRDahanu, Maharashtra
21.13VGNVangaon (3)  10:58-10:58-  21121.3 7911mWRDist. Palghar, Maharashtra
21.14BORBoisar (3)  11:05-11:05-  21130.7 7917mWRBoisar Tel.no-02525-266626, Maharashtra
21.15UOIUmroli (2)  11:09-11:09-  21135.6 798mWRBoisar, Maharashtra
21.16PLGPalghar (3)X  11:14-11:14-  21142.0 7919mWRPalghar, Maharashtra
21.17KLVKelve Road (3)  11:20-11:20-  21150.4 7910mWRDist. Palghar, Maharashtra
21.18SAHSaphale (2)  11:25-11:25-  21156.8 798mWRDist. Palghar, Maharashtra
21.19VTNVaitarna (2)  11:31-11:31-  21164.6 793mWRDist. Palghar, Maharashtra
21.20VRVirar (8)  11:37-11:37-  21173.1 796mWRDist. Palghar, Maharashtra
21.21NSPNallasopara (4)  11:41-11:41-  21177.3 795mWRNallasopara station Rd, Maharashtra
21.22BSRVasai Road (7)  11:44-11:44-  21181.6 797mWRVasai 401202, Maharashtra
21.23NIGNaigaon (4)  11:47-11:47-  21185.3 795mWRNaigaon West, Maharashtra
21.24BYRBhayandar (6)  11:50-11:50-  21190.0 796mWRThane, Maharashtra
21.25MIRAMira Road (4)  11:53-11:53-  21193.2 793mWRMira Bhayandar, Maharashtra
21.26DICDahisar (4)  11:55-11:55-  21196.7 7914mWRMumbai, Maharashtra
22BVIMumbai Borivali (8)  11:57+5111:59+502m521199.02419mWRMumbai - 400092, Maharashtra
22.1KILEKandivli (4)X  12:06-12:06-  21201.7 2414mWRMumbai, Maharashtra
22.2MDDMalad (4)  12:11-12:11-  21203.8 2418mWRMumbai-400064, Maharashtra
22.3GMNGoregaon (5)  12:17-12:17-  21206.2 2415mWRMumbai - 400104, Maharashtra
22.4JOSJogeshwari (4)  12:25-12:25-  21209.4 2414mWRMumbai, Maharashtra
22.5ADHMumbai Andheri (9)  12:30-12:30-  21211.6 2412mWRMumbai, Maharashtra
22.6VLPVille Parle (6)  12:35-12:35-  21213.5 2411mWRMumbai, Maharashtra
22.7STCSanta Cruz (6)X  12:39-12:39-  21215.4 2410mWRMumbai, Maharashtra
22.8KHARKhar (6)  12:43-12:43-  21216.9 247mWRMumbai, Maharashtra
23BDTSMumbai Bandra Terminus (5)  12:45+1:33---21217.7-4mWRMumbai 400050, Maharashtra
Scroll to Top
Scroll to Bottom